Terminal Aerodrome Forecast
Issued by NWS Grand Forks, ND

Home | Current Version | Previous Version | Text Only | Print | Product List | Glossary On
Versions: 1 2 3 4 5 6 7 8 9 10 11 12
000
FTUS43 KFGF 231140
TAFGFK
TAF
KGFK 231140Z 2312/2412 19007KT P6SM SCT250
     FM231600 19008KT P6SM BKN250
     FM232000 19007KT P6SM BKN120=

USA.gov is the U.S. government's official web portal to all federal, state and local government web resources and services.